createdAt,value
2023-01-22T00:01:02.012Z,97002.78
2023-01-22T00:03:29.073Z,97004.03
2023-01-22T00:05:56.399Z,96987.34
2023-01-22T00:08:23.380Z,97003.84
2023-01-22T00:10:54.653Z,97020.75
2023-01-22T00:13:23.955Z,97008.56
2023-01-22T00:15:51.151Z,97015.56
2023-01-22T00:18:19.130Z,97011.25
2023-01-22T00:20:50.203Z,96995.34
2023-01-22T00:23:17.313Z,97013.06
2023-01-22T00:25:44.845Z,97008.75
2023-01-22T00:28:12.873Z,97017.66
2023-01-22T00:30:40.215Z,97020.13
2023-01-22T00:33:09.120Z,97018.34
2023-01-22T00:35:36.022Z,97015.13
2023-01-22T00:38:03.913Z,97015.75
2023-01-22T00:40:32.428Z,97019.28
2023-01-22T00:42:59.278Z,97009.72
2023-01-22T00:45:26.188Z,97012.94
2023-01-22T00:47:53.597Z,96990.66
2023-01-22T00:50:20.945Z,96987.22
2023-01-22T00:52:47.882Z,97005.41
2023-01-22T00:55:14.840Z,96999.19
2023-01-22T00:57:41.795Z,97015.38
2023-01-22T01:00:09.526Z,97026.75
2023-01-22T01:02:56.373Z,97024.28
2023-01-22T01:05:23.249Z,97036.06
2023-01-22T01:07:51.391Z,97025.09
2023-01-22T01:10:18.847Z,97040.63
2023-01-22T01:12:45.893Z,97042.28
2023-01-22T01:15:13.035Z,97043.44
2023-01-22T01:17:39.996Z,97053.66
2023-01-22T01:20:07.536Z,97044.94
2023-01-22T01:22:34.447Z,97060.13
2023-01-22T01:25:01.394Z,97050.41
2023-01-22T01:27:31.710Z,97049.38
2023-01-22T01:29:59.078Z,97054.34
2023-01-22T01:32:26.137Z,97069.25
2023-01-22T01:34:53.296Z,97063.41
2023-01-22T01:37:20.267Z,97076.94
2023-01-22T01:39:48.046Z,97088.44
2023-01-22T01:42:14.955Z,97077.38
2023-01-22T01:44:42.777Z,97090.00
2023-01-22T01:47:30.697Z,97088.22
2023-01-22T01:49:57.598Z,97072.47
2023-01-22T01:52:24.517Z,97070.06
2023-01-22T01:54:56.091Z,97065.41
2023-01-22T01:57:29.368Z,97073.75
2023-01-22T01:59:59.083Z,97067.69
2023-01-22T02:02:26.050Z,97077.03
2023-01-22T02:04:54.233Z,97079.69
2023-01-22T02:07:21.184Z,97069.44
2023-01-22T02:09:48.327Z,97054.88
2023-01-22T02:12:15.595Z,97057.09
2023-01-22T02:14:45.982Z,97048.28
2023-01-22T02:17:32.719Z,97056.34
2023-01-22T02:19:59.771Z,97038.97
2023-01-22T02:22:32.671Z,97067.44
2023-01-22T02:25:00.903Z,97074.22
2023-01-22T02:27:30.394Z,97081.66
2023-01-22T02:29:57.289Z,97092.59
2023-01-22T02:32:24.287Z,97098.84
2023-01-22T02:34:52.710Z,97093.38
2023-01-22T02:37:19.753Z,97094.00
2023-01-22T02:39:48.247Z,97094.59
2023-01-22T02:42:15.522Z,97089.28
2023-01-22T02:44:43.509Z,97090.13
2023-01-22T02:47:12.083Z,97078.09
2023-01-22T02:49:39.030Z,97088.56
2023-01-22T02:52:06.336Z,97086.13
2023-01-22T02:54:34.328Z,97090.91
2023-01-22T02:57:01.281Z,97091.41
2023-01-22T02:59:28.959Z,97095.69
2023-01-22T03:01:57.258Z,97101.47
2023-01-22T03:04:27.252Z,97096.75
2023-01-22T03:06:54.153Z,97093.47
2023-01-22T03:09:23.501Z,97099.06
2023-01-22T03:11:51.099Z,97099.81
2023-01-22T03:14:44.558Z,97092.06
2023-01-22T03:17:30.120Z,97096.31
2023-01-22T03:20:17.747Z,97087.78
2023-01-22T03:22:45.009Z,97080.63
2023-01-22T03:25:12.494Z,97086.75
2023-01-22T03:28:01.223Z,97096.56
2023-01-22T03:30:29.294Z,97103.31
2023-01-22T03:32:56.221Z,97102.78
2023-01-22T03:35:23.752Z,97111.59
2023-01-22T03:38:06.982Z,97103.31
2023-01-22T03:40:34.484Z,97100.97
2023-01-22T03:43:01.563Z,97097.16
2023-01-22T03:45:28.514Z,97099.22
2023-01-22T03:47:55.441Z,97109.78
2023-01-22T03:50:29.581Z,97104.50
2023-01-22T03:52:58.064Z,97106.88
2023-01-22T03:55:25.671Z,97117.94
2023-01-22T03:57:54.007Z,97119.94
2023-01-22T04:00:21.363Z,97118.25
2023-01-22T04:02:50.494Z,97126.72
2023-01-22T04:05:21.584Z,97125.81
2023-01-22T04:07:50.800Z,97118.03
2023-01-22T04:10:21.539Z,97124.69
2023-01-22T04:12:49.205Z,97124.16
2023-01-22T04:15:19.423Z,97124.41
2023-01-22T04:17:47.407Z,97117.00
2023-01-22T04:20:50.212Z,97132.78
2023-01-22T04:23:21.188Z,97140.59
2023-01-22T04:25:50.103Z,97139.22
2023-01-22T04:28:18.149Z,97125.28
2023-01-22T04:30:50.984Z,97129.78
2023-01-22T04:33:30.504Z,97135.94
2023-01-22T04:36:10.509Z,97126.03
2023-01-22T04:38:37.798Z,97139.09
2023-01-22T04:41:04.902Z,97119.75
2023-01-22T04:43:32.600Z,97100.81
2023-01-22T04:45:59.820Z,97106.50
2023-01-22T04:48:30.836Z,97102.97
2023-01-22T04:50:57.735Z,97121.78
2023-01-22T04:53:28.124Z,97117.25
2023-01-22T04:55:55.591Z,97114.31
2023-01-22T04:58:22.646Z,97116.06
2023-01-22T05:00:51.339Z,97130.22
2023-01-22T05:03:18.386Z,97138.38
2023-01-22T05:05:45.355Z,97143.81
2023-01-22T05:08:12.472Z,97152.41
2023-01-22T05:10:39.579Z,97140.44
2023-01-22T05:13:08.972Z,97168.75
2023-01-22T05:15:37.983Z,97163.78
2023-01-22T05:18:09.008Z,97171.34
2023-01-22T05:20:38.371Z,97182.72
2023-01-22T05:23:05.789Z,97175.47
2023-01-22T05:25:33.010Z,97183.03
2023-01-22T05:28:00.921Z,97174.44
2023-01-22T05:30:41.833Z,97185.41
2023-01-22T05:33:16.297Z,97188.94
2023-01-22T05:35:43.291Z,97205.25
2023-01-22T05:38:11.356Z,97206.97
2023-01-22T05:40:38.835Z,97227.13
2023-01-22T05:43:05.823Z,97223.22
2023-01-22T05:45:33.197Z,97233.56
2023-01-22T05:48:29.473Z,97219.16
2023-01-22T05:51:07.998Z,97251.72
2023-01-22T05:53:35.640Z,97251.25
2023-01-22T05:56:04.674Z,97261.53
2023-01-22T05:58:35.562Z,97263.16
2023-01-22T06:01:03.262Z,97261.53
2023-01-22T06:03:35.795Z,97262.78
2023-01-22T06:06:07.933Z,97269.63
2023-01-22T06:08:34.980Z,97262.63
2023-01-22T06:11:11.797Z,97273.97
2023-01-22T06:13:39.831Z,97266.06
2023-01-22T06:16:15.012Z,97273.44
2023-01-22T06:19:12.548Z,97288.06
2023-01-22T06:21:44.160Z,97290.34
2023-01-22T06:24:12.106Z,97289.28
2023-01-22T06:26:39.019Z,97285.47
2023-01-22T06:29:08.577Z,97295.84
2023-01-22T06:31:35.994Z,97298.59
2023-01-22T06:34:06.726Z,97304.13
2023-01-22T06:36:33.697Z,97312.69
2023-01-22T06:39:00.815Z,97318.25
2023-01-22T06:41:42.669Z,97317.84
2023-01-22T06:44:12.603Z,97321.44
2023-01-22T06:46:39.907Z,97327.63
2023-01-22T06:49:10.778Z,97339.63
2023-01-22T06:51:39.766Z,97333.66
2023-01-22T06:54:07.227Z,97341.66
2023-01-22T06:56:34.546Z,97349.41
2023-01-22T06:59:04.209Z,97333.13
2023-01-22T07:01:31.254Z,97341.84
2023-01-22T07:03:58.317Z,97348.75
2023-01-22T07:06:25.494Z,97258.63
2023-01-22T07:08:52.429Z,97362.34
2023-01-22T07:11:19.517Z,97353.25
2023-01-22T07:13:46.414Z,97347.06
2023-01-22T07:16:13.900Z,97350.66
2023-01-22T07:18:40.886Z,97365.72
2023-01-22T07:21:07.881Z,97360.72
2023-01-22T07:23:34.805Z,97368.88
2023-01-22T07:26:01.677Z,97368.25
2023-01-22T07:28:28.689Z,97374.81
2023-01-22T07:30:56.961Z,97361.50
2023-01-22T07:33:24.096Z,97378.53
2023-01-22T07:35:57.601Z,97377.56
2023-01-22T07:38:30.523Z,97382.28
2023-01-22T07:41:02.235Z,97387.28
2023-01-22T07:43:30.464Z,97377.41
2023-01-22T07:46:04.298Z,97383.19
2023-01-22T07:48:31.328Z,97357.19
2023-01-22T07:51:06.578Z,97384.75
2023-01-22T07:53:34.305Z,97385.03
2023-01-22T07:56:02.391Z,97389.31
2023-01-22T07:58:29.436Z,97392.53
2023-01-22T08:00:56.323Z,97393.56
2023-01-22T08:03:23.497Z,97391.41
2023-01-22T08:05:50.441Z,97396.16
2023-01-22T08:08:20.566Z,97394.03
2023-01-22T08:10:47.745Z,97416.81
2023-01-22T08:13:15.091Z,97410.66
2023-01-22T08:15:42.765Z,97411.53
2023-01-22T08:18:11.402Z,97413.06
2023-01-22T08:20:38.543Z,97416.41
2023-01-22T08:23:05.427Z,97418.44
2023-01-22T08:25:32.309Z,97423.75
2023-01-22T08:28:02.873Z,97420.38
2023-01-22T08:30:29.735Z,97420.72
2023-01-22T08:32:56.606Z,97415.66
2023-01-22T08:35:24.547Z,97411.53
2023-01-22T08:37:51.599Z,97427.94
2023-01-22T08:40:18.755Z,97433.41
2023-01-22T08:42:51.425Z,97428.84
2023-01-22T08:45:18.751Z,97422.00
2023-01-22T08:47:45.771Z,97419.81
2023-01-22T08:50:12.673Z,97416.53
2023-01-22T08:52:39.657Z,97413.16
2023-01-22T08:55:09.923Z,97407.50
2023-01-22T08:57:37.319Z,97404.53
2023-01-22T09:00:05.321Z,97409.72
2023-01-22T09:02:32.607Z,97418.25
2023-01-22T09:04:59.518Z,97424.22
2023-01-22T09:07:26.496Z,97423.19
2023-01-22T09:09:53.353Z,97420.38
2023-01-22T09:12:20.387Z,97430.59
2023-01-22T09:14:47.257Z,97434.28
2023-01-22T09:17:14.203Z,97427.13
2023-01-22T09:19:41.293Z,97425.41
2023-01-22T09:22:08.155Z,97409.16
2023-01-22T09:24:35.166Z,97439.91
2023-01-22T09:27:02.158Z,97430.41
2023-01-22T09:29:29.162Z,97426.44
2023-01-22T09:31:56.871Z,97410.88
2023-01-22T09:34:23.861Z,97416.69
2023-01-22T09:36:50.952Z,97419.81
2023-01-22T09:39:18.291Z,97424.09
2023-01-22T09:41:52.501Z,97423.22
2023-01-22T09:44:32.191Z,97415.34
2023-01-22T09:47:11.722Z,97438.69
2023-01-22T09:50:02.291Z,97442.56
2023-01-22T09:52:34.759Z,97449.13
2023-01-22T10:01:46.884Z,97424.19
2023-01-22T10:04:31.258Z,97425.25
2023-01-22T10:07:01.404Z,97426.19
2023-01-22T10:09:31.283Z,97418.94
2023-01-22T10:12:00.135Z,97428.97
2023-01-22T10:14:30.218Z,97433.97
2023-01-22T10:17:01.679Z,97435.56
2023-01-22T10:19:51.481Z,97426.94
2023-01-22T10:22:24.386Z,97435.03
2023-01-22T10:24:52.262Z,97416.34
2023-01-22T10:27:41.298Z,97426.59
2023-01-22T10:30:14.305Z,97420.44
2023-01-22T10:32:41.271Z,97419.56
2023-01-22T10:35:11.424Z,97414.63
2023-01-22T10:37:49.669Z,97415.34
2023-01-22T10:40:27.422Z,97408.22
2023-01-22T10:43:13.827Z,97403.09
2023-01-22T10:46:01.811Z,97391.81
2023-01-22T10:48:28.969Z,97392.69
2023-01-22T10:51:05.456Z,97374.38
2023-01-22T10:53:44.081Z,97385.41
2023-01-22T10:56:29.456Z,97382.84
2023-01-22T10:58:59.985Z,97380.50
2023-01-22T11:01:36.558Z,97386.19
2023-01-22T11:04:24.483Z,97401.88
2023-01-22T11:06:56.278Z,97395.00
2023-01-22T11:09:31.780Z,97392.25
2023-01-22T11:12:08.399Z,97399.84
2023-01-22T11:14:38.135Z,97391.41
2023-01-22T11:17:31.306Z,97404.06
2023-01-22T11:20:03.188Z,97403.66
2023-01-22T11:22:40.862Z,97402.03
2023-01-22T11:25:11.475Z,97403.94
2023-01-22T11:27:50.631Z,97407.44
2023-01-22T11:30:38.272Z,97414.19
2023-01-22T11:33:20.541Z,97416.22
2023-01-22T11:35:54.078Z,97412.16
2023-01-22T11:38:30.100Z,97410.13
2023-01-22T11:41:00.387Z,97399.00
2023-01-22T11:43:43.485Z,97388.66
2023-01-22T11:46:28.715Z,97402.50
2023-01-22T11:49:08.244Z,97393.34
2023-01-22T11:51:51.030Z,97400.72
2023-01-22T11:54:35.955Z,97407.47
2023-01-22T11:57:02.815Z,97409.94
2023-01-22T11:59:51.617Z,97407.09
2023-01-22T12:02:49.679Z,97414.41
2023-01-22T12:05:46.162Z,97417.72
2023-01-22T12:08:31.210Z,97414.69
2023-01-22T12:11:32.700Z,97417.19
2023-01-22T12:14:24.638Z,97426.94
2023-01-22T12:17:35.898Z,97430.00
2023-01-22T12:20:24.554Z,97434.94
2023-01-22T12:23:19.588Z,97432.75
2023-01-22T12:25:59.219Z,97445.25
2023-01-22T12:28:45.763Z,97440.72
2023-01-22T12:31:41.276Z,97446.38
2023-01-22T12:34:27.828Z,97448.41
2023-01-22T12:36:55.819Z,97451.59
2023-01-22T12:39:57.607Z,97456.38
2023-01-22T12:42:32.578Z,97457.94
2023-01-22T12:45:25.356Z,97459.25
2023-01-22T12:48:10.222Z,97453.75
2023-01-22T12:50:49.285Z,97465.16
2023-01-22T12:53:34.870Z,97476.03
2023-01-22T12:56:08.655Z,97479.31
2023-01-22T12:58:38.477Z,97474.59
2023-01-22T13:01:13.717Z,97477.97
2023-01-22T13:03:42.151Z,97476.34
2023-01-22T13:06:21.542Z,97479.19
2023-01-22T13:08:48.646Z,97487.03
2023-01-22T13:11:38.305Z,97479.06
2023-01-22T13:14:26.803Z,97481.78
2023-01-22T13:17:00.139Z,97482.75
2023-01-22T13:19:30.955Z,97488.41
2023-01-22T13:22:00.020Z,97480.59
2023-01-22T13:24:27.023Z,97468.88
2023-01-22T13:27:01.907Z,97480.63
2023-01-22T13:29:37.102Z,97475.03
2023-01-22T13:32:15.414Z,97474.44
2023-01-22T13:34:42.332Z,97464.72
2023-01-22T13:37:23.863Z,97485.31
2023-01-22T13:39:51.002Z,97474.00
2023-01-22T13:42:18.829Z,97477.81
2023-01-22T13:44:50.337Z,97478.25
2023-01-22T13:47:33.521Z,97424.72
2023-01-22T13:50:02.021Z,97479.97
2023-01-22T13:52:33.113Z,97486.84
2023-01-22T13:55:05.704Z,97490.84
2023-01-22T13:57:32.662Z,97482.16
2023-01-22T14:00:01.985Z,97489.47
2023-01-22T14:02:34.667Z,97490.72
2023-01-22T14:05:02.275Z,97492.41
2023-01-22T14:07:39.614Z,97495.06
2023-01-22T14:10:23.375Z,97503.44
2023-01-22T14:13:04.748Z,97500.00
2023-01-22T14:15:32.638Z,97500.44
2023-01-22T14:18:13.526Z,97499.66
2023-01-22T14:20:42.031Z,97493.00
2023-01-22T14:23:09.111Z,97488.41
2023-01-22T14:25:46.434Z,97501.22
2023-01-22T14:28:14.678Z,97505.50
2023-01-22T14:30:41.729Z,97515.72
2023-01-22T14:33:14.996Z,97518.13
2023-01-22T14:35:41.972Z,97510.97
2023-01-22T14:38:08.982Z,97528.34
2023-01-22T14:40:36.003Z,97521.28
2023-01-22T14:43:03.608Z,97523.25
2023-01-22T14:45:30.609Z,97519.47
2023-01-22T14:47:57.626Z,97477.38
2023-01-22T14:50:24.811Z,97513.91
2023-01-22T14:52:52.048Z,97528.38
2023-01-22T14:55:19.840Z,97528.16
2023-01-22T14:57:47.087Z,97531.28
2023-01-22T15:00:17.251Z,97534.94
2023-01-22T15:02:44.997Z,97546.16
2023-01-22T15:05:12.159Z,97536.19
2023-01-22T15:07:39.004Z,97547.50
2023-01-22T15:10:08.208Z,97552.13
2023-01-22T15:12:36.416Z,97549.88
2023-01-22T15:15:03.768Z,97537.75
2023-01-22T15:17:31.423Z,97555.72
2023-01-22T15:19:58.364Z,97552.72
2023-01-22T15:22:25.412Z,97548.91
2023-01-22T15:24:52.276Z,97559.72
2023-01-22T15:27:19.293Z,97552.25
2023-01-22T15:29:50.776Z,97551.69
2023-01-22T15:32:18.023Z,97536.59
2023-01-22T15:34:44.973Z,97555.72
2023-01-22T15:37:13.824Z,97527.22
2023-01-22T15:39:41.974Z,97545.53
2023-01-22T15:42:09.427Z,97544.50
2023-01-22T15:44:37.616Z,97555.84
2023-01-22T15:47:06.639Z,97531.66
2023-01-22T15:49:34.903Z,97555.16
2023-01-22T15:52:01.844Z,97538.28
2023-01-22T15:54:28.956Z,97559.50
2023-01-22T15:56:56.106Z,97565.53
2023-01-22T15:59:23.139Z,97562.28
2023-01-22T16:01:50.126Z,97564.41
2023-01-22T16:04:17.001Z,97571.28
2023-01-22T16:06:44.653Z,97570.16
2023-01-22T16:09:11.761Z,97572.97
2023-01-22T16:11:38.785Z,97571.72
2023-01-22T16:14:05.797Z,97580.59
2023-01-22T16:16:36.463Z,97576.59
2023-01-22T16:19:05.736Z,97579.88
2023-01-22T16:21:33.031Z,97578.78
2023-01-22T16:24:01.511Z,97581.28
2023-01-22T16:26:31.567Z,97582.63
2023-01-22T16:29:00.379Z,97584.28
2023-01-22T16:31:30.153Z,97595.44
2023-01-22T16:34:06.489Z,97599.44
2023-01-22T16:36:33.611Z,97588.38
2023-01-22T16:39:01.072Z,97596.84
2023-01-22T16:41:33.462Z,97588.28
2023-01-22T16:44:16.203Z,97608.31
2023-01-22T16:46:45.783Z,97596.28
2023-01-22T16:49:18.517Z,97607.75
2023-01-22T16:51:54.126Z,97598.72
2023-01-22T16:54:34.168Z,97608.38
2023-01-22T16:57:03.760Z,97611.38
2023-01-22T16:59:32.260Z,97612.09
2023-01-22T17:02:00.997Z,97617.03
2023-01-22T17:04:28.595Z,97610.34
2023-01-22T17:06:57.608Z,97614.19
2023-01-22T17:09:30.347Z,97605.00
2023-01-22T17:12:00.154Z,97610.03
2023-01-22T17:14:29.937Z,97611.69
2023-01-22T17:16:58.263Z,97609.25
2023-01-22T17:19:27.521Z,97608.53
2023-01-22T17:21:56.777Z,97602.00
2023-01-22T17:24:24.312Z,97606.03
2023-01-22T17:26:52.008Z,97610.75
2023-01-22T17:29:20.081Z,97610.50
2023-01-22T17:31:48.782Z,97610.66
2023-01-22T17:34:16.251Z,97587.72
2023-01-22T17:36:43.401Z,97611.28
2023-01-22T17:39:15.941Z,97618.56
2023-01-22T17:41:43.653Z,97617.25
2023-01-22T17:44:11.346Z,97620.09
2023-01-22T17:46:38.478Z,97624.25
2023-01-22T17:49:05.809Z,97630.47
2023-01-22T17:51:34.778Z,97618.81
2023-01-22T17:54:03.429Z,97621.13
2023-01-22T17:56:39.343Z,97617.09
2023-01-22T17:59:07.358Z,97632.34
2023-01-22T18:01:36.798Z,97633.97
2023-01-22T18:04:06.972Z,97632.19
2023-01-22T18:06:34.754Z,97642.75
2023-01-22T18:09:03.114Z,97643.41
2023-01-22T18:11:30.964Z,97651.09
2023-01-22T18:14:06.466Z,97637.00
2023-01-22T18:16:36.315Z,97661.47
2023-01-22T18:19:05.643Z,97655.22
2023-01-22T18:21:33.485Z,97660.09
2023-01-22T18:24:02.113Z,97654.78
2023-01-22T18:26:29.600Z,97662.91
2023-01-22T18:28:58.013Z,97650.75
2023-01-22T18:31:27.218Z,97670.25
2023-01-22T18:33:56.394Z,97662.31
2023-01-22T18:36:26.189Z,97671.00
2023-01-22T18:38:53.151Z,97674.44
2023-01-22T18:41:23.988Z,97673.69
2023-01-22T18:43:56.280Z,97675.28
2023-01-22T18:46:25.369Z,97677.13
2023-01-22T18:48:54.970Z,97668.06
2023-01-22T18:51:23.120Z,97670.72
2023-01-22T18:53:50.345Z,97674.31
2023-01-22T18:56:17.276Z,97665.78
2023-01-22T18:58:45.180Z,97664.56
2023-01-22T19:01:18.048Z,97676.19
2023-01-22T19:03:49.348Z,97673.47
2023-01-22T19:06:19.360Z,97672.97
2023-01-22T19:08:56.924Z,97677.28
2023-01-22T19:11:25.364Z,97676.50
2023-01-22T19:13:54.610Z,97666.13
2023-01-22T19:16:22.815Z,97676.75
2023-01-22T19:18:58.169Z,97678.03
2023-01-22T19:21:26.968Z,97682.09
2023-01-22T19:23:57.968Z,97680.16
2023-01-22T19:26:31.445Z,97674.13
2023-01-22T19:29:01.658Z,97683.25
2023-01-22T19:31:32.624Z,97689.00
2023-01-22T19:34:01.993Z,97660.09
2023-01-22T19:36:32.353Z,97678.34
2023-01-22T19:39:22.608Z,97682.31
2023-01-22T19:42:19.396Z,97681.34
2023-01-22T19:44:47.204Z,97696.72
2023-01-22T19:47:15.518Z,97689.34
2023-01-22T19:49:42.694Z,97694.63
2023-01-22T19:52:10.158Z,97696.25
2023-01-22T19:54:40.931Z,97691.88
2023-01-22T19:57:08.278Z,97696.94
2023-01-22T19:59:35.447Z,97703.97
2023-01-22T20:02:02.714Z,97702.22
2023-01-22T20:04:33.763Z,97693.34
2023-01-22T20:07:04.604Z,97699.56
2023-01-22T20:09:34.252Z,97675.06
2023-01-22T20:12:01.593Z,97693.59
2023-01-22T20:14:31.156Z,97701.78
2023-01-22T20:16:59.477Z,97705.28
2023-01-22T20:19:30.646Z,97690.19
2023-01-22T20:21:59.758Z,97612.41
2023-01-22T20:24:28.315Z,97712.94
2023-01-22T20:27:02.592Z,97696.25
2023-01-22T20:29:33.872Z,97628.13
2023-01-22T20:32:01.106Z,97713.81
2023-01-22T20:34:28.195Z,97717.75
2023-01-22T20:36:55.326Z,97714.81
2023-01-22T20:39:23.095Z,97665.78
2023-01-22T20:41:50.314Z,97708.84
2023-01-22T20:44:17.880Z,97701.34
2023-01-22T20:46:45.670Z,97708.84
2023-01-22T20:49:12.978Z,97710.47
2023-01-22T20:51:41.997Z,97700.28
2023-01-22T20:54:09.152Z,97707.34
2023-01-22T20:56:36.269Z,97708.09
2023-01-22T20:59:10.431Z,97709.84
2023-01-22T21:01:37.994Z,97707.13
2023-01-22T21:04:05.617Z,97707.31
2023-01-22T21:06:35.383Z,97697.41
2023-01-22T21:09:03.768Z,97707.34
2023-01-22T21:11:33.159Z,97709.06
2023-01-22T21:14:02.191Z,97704.66
2023-01-22T21:16:35.592Z,97713.16
2023-01-22T21:19:11.385Z,97716.59
2023-01-22T21:21:38.635Z,97691.88
2023-01-22T21:24:06.144Z,97710.56
2023-01-22T21:26:33.856Z,97687.91
2023-01-22T21:29:11.975Z,97711.44
2023-01-22T21:31:39.195Z,97707.31
2023-01-22T21:34:08.759Z,97701.06
2023-01-22T21:36:50.156Z,97708.69
2023-01-22T21:39:22.006Z,97715.09
2023-01-22T21:41:49.141Z,97710.09
2023-01-22T21:44:37.736Z,97693.44
2023-01-22T21:47:05.672Z,97716.44
2023-01-22T21:49:35.323Z,97710.69
2023-01-22T21:52:12.213Z,97716.06
2023-01-22T21:54:42.628Z,97715.78
2023-01-22T21:57:14.362Z,97721.41
2023-01-22T21:59:41.959Z,97721.69
2023-01-22T22:02:14.728Z,97717.84
2023-01-22T22:04:42.511Z,97706.47
2023-01-22T22:07:09.565Z,97727.94
2023-01-22T22:09:37.439Z,97710.97
2023-01-22T22:12:05.471Z,97738.09
2023-01-22T22:14:33.259Z,97721.84
2023-01-22T22:17:00.493Z,97723.75
2023-01-22T22:19:29.039Z,97719.72
2023-01-22T22:21:56.604Z,97702.69
2023-01-22T22:24:23.591Z,97719.38
2023-01-22T22:26:50.701Z,97704.63
2023-01-22T22:29:17.742Z,97713.97
2023-01-22T22:31:44.786Z,97719.81
2023-01-22T22:34:11.785Z,97715.50
2023-01-22T22:36:39.133Z,97722.41
2023-01-22T22:39:06.732Z,97701.91
2023-01-22T22:41:36.283Z,97725.97
2023-01-22T22:44:04.302Z,97705.78
2023-01-22T22:46:34.089Z,97715.81
2023-01-22T22:49:02.154Z,97717.69
2023-01-22T22:51:38.310Z,97712.59
2023-01-22T22:54:08.000Z,97717.56
2023-01-22T22:56:35.309Z,97715.59
2023-01-22T22:59:03.085Z,97712.53
2023-01-22T23:01:35.590Z,97699.59
2023-01-22T23:04:02.907Z,97703.50
2023-01-22T23:06:32.548Z,97717.53
2023-01-22T23:09:11.041Z,97705.97
2023-01-22T23:11:38.630Z,97697.63
2023-01-22T23:14:06.013Z,97706.88
2023-01-22T23:16:36.700Z,97690.41
2023-01-22T23:19:07.602Z,97714.22
2023-01-22T23:21:36.508Z,97709.97
2023-01-22T23:24:03.728Z,97729.09
2023-01-22T23:26:31.119Z,97714.69
2023-01-22T23:29:02.113Z,97713.84
2023-01-22T23:31:31.892Z,97716.41
2023-01-22T23:34:00.579Z,97716.50
2023-01-22T23:36:27.702Z,97721.84
2023-01-22T23:38:55.181Z,97719.59
2023-01-22T23:41:23.313Z,97703.72
2023-01-22T23:43:50.689Z,97702.91
2023-01-22T23:46:20.665Z,97709.81
2023-01-22T23:48:48.290Z,97730.13
2023-01-22T23:51:15.941Z,97739.59
2023-01-22T23:53:47.336Z,97737.69
2023-01-22T23:56:15.498Z,97746.88
2023-01-22T23:58:42.804Z,97734.81
